sensor_id;sensor_type;location;lat;lon;timestamp;P1;durP1;ratioP1;P2;durP2;ratioP2
47669;SDS011;33408;52.062;11.722;2023-08-30T00:01:25;7.28;;;3.88;;
47669;SDS011;33408;52.062;11.722;2023-08-30T00:03:52;5.80;;;3.08;;
47669;SDS011;33408;52.062;11.722;2023-08-30T00:06:21;6.28;;;3.38;;
47669;SDS011;33408;52.062;11.722;2023-08-30T00:08:47;5.30;;;3.30;;
47669;SDS011;33408;52.062;11.722;2023-08-30T00:11:14;5.50;;;3.25;;
47669;SDS011;33408;52.062;11.722;2023-08-30T00:13:41;5.50;;;3.40;;
47669;SDS011;33408;52.062;11.722;2023-08-30T00:16:07;5.28;;;3.25;;
47669;SDS011;33408;52.062;11.722;2023-08-30T00:18:34;6.57;;;3.30;;
47669;SDS011;33408;52.062;11.722;2023-08-30T00:21:00;5.43;;;2.85;;
47669;SDS011;33408;52.062;11.722;2023-08-30T00:23:28;6.88;;;3.05;;
47669;SDS011;33408;52.062;11.722;2023-08-30T00:25:55;6.05;;;3.22;;
47669;SDS011;33408;52.062;11.722;2023-08-30T00:28:22;5.80;;;3.58;;
47669;SDS011;33408;52.062;11.722;2023-08-30T00:30:52;8.40;;;3.15;;
47669;SDS011;33408;52.062;11.722;2023-08-30T00:33:19;7.93;;;3.88;;
47669;SDS011;33408;52.062;11.722;2023-08-30T00:35:45;7.80;;;3.55;;
47669;SDS011;33408;52.062;11.722;2023-08-30T00:38:12;5.95;;;3.50;;
47669;SDS011;33408;52.062;11.722;2023-08-30T00:40:40;8.07;;;3.75;;
47669;SDS011;33408;52.062;11.722;2023-08-30T00:43:07;6.40;;;3.80;;
47669;SDS011;33408;52.062;11.722;2023-08-30T00:45:34;7.80;;;4.00;;
47669;SDS011;33408;52.062;11.722;2023-08-30T00:48:04;5.93;;;3.33;;
47669;SDS011;33408;52.062;11.722;2023-08-30T00:50:31;7.18;;;3.67;;
47669;SDS011;33408;52.062;11.722;2023-08-30T00:52:58;6.03;;;3.60;;
47669;SDS011;33408;52.062;11.722;2023-08-30T00:55:30;5.95;;;3.95;;
47669;SDS011;33408;52.062;11.722;2023-08-30T00:57:58;7.22;;;3.90;;
47669;SDS011;33408;52.062;11.722;2023-08-30T01:00:25;5.10;;;3.28;;
47669;SDS011;33408;52.062;11.722;2023-08-30T01:02:52;7.97;;;3.55;;
47669;SDS011;33408;52.062;11.722;2023-08-30T01:05:19;5.72;;;3.35;;
47669;SDS011;33408;52.062;11.722;2023-08-30T01:07:46;9.60;;;3.67;;
47669;SDS011;33408;52.062;11.722;2023-08-30T01:10:12;7.75;;;3.40;;
47669;SDS011;33408;52.062;11.722;2023-08-30T01:12:39;6.93;;;3.28;;
47669;SDS011;33408;52.062;11.722;2023-08-30T01:15:12;7.60;;;3.33;;
47669;SDS011;33408;52.062;11.722;2023-08-30T01:17:42;5.15;;;2.70;;
47669;SDS011;33408;52.062;11.722;2023-08-30T01:20:09;6.63;;;3.33;;
47669;SDS011;33408;52.062;11.722;2023-08-30T01:22:43;7.22;;;3.17;;
47669;SDS011;33408;52.062;11.722;2023-08-30T01:25:24;5.72;;;3.00;;
47669;SDS011;33408;52.062;11.722;2023-08-30T01:28:00;5.13;;;2.75;;
47669;SDS011;33408;52.062;11.722;2023-08-30T01:30:29;5.93;;;3.03;;
47669;SDS011;33408;52.062;11.722;2023-08-30T01:32:58;6.32;;;3.17;;
47669;SDS011;33408;52.062;11.722;2023-08-30T01:35:26;6.32;;;2.80;;
47669;SDS011;33408;52.062;11.722;2023-08-30T01:37:57;9.73;;;3.22;;
47669;SDS011;33408;52.062;11.722;2023-08-30T01:40:26;5.22;;;2.78;;
47669;SDS011;33408;52.062;11.722;2023-08-30T01:42:56;9.87;;;3.00;;
47669;SDS011;33408;52.062;11.722;2023-08-30T01:45:26;6.45;;;3.25;;
47669;SDS011;33408;52.062;11.722;2023-08-30T01:47:55;7.88;;;3.20;;
47669;SDS011;33408;52.062;11.722;2023-08-30T01:50:23;5.72;;;2.85;;
47669;SDS011;33408;52.062;11.722;2023-08-30T01:52:50;6.05;;;2.88;;
47669;SDS011;33408;52.062;11.722;2023-08-30T01:55:19;6.63;;;2.85;;
47669;SDS011;33408;52.062;11.722;2023-08-30T01:57:47;6.32;;;2.72;;
47669;SDS011;33408;52.062;11.722;2023-08-30T02:00:14;6.47;;;3.08;;
47669;SDS011;33408;52.062;11.722;2023-08-30T02:02:43;6.93;;;3.33;;
47669;SDS011;33408;52.062;11.722;2023-08-30T02:05:09;5.18;;;3.10;;
47669;SDS011;33408;52.062;11.722;2023-08-30T02:07:38;7.80;;;3.90;;
47669;SDS011;33408;52.062;11.722;2023-08-30T02:10:10;5.05;;;3.13;;
47669;SDS011;33408;52.062;11.722;2023-08-30T02:12:41;8.13;;;3.53;;
47669;SDS011;33408;52.062;11.722;2023-08-30T02:15:14;6.57;;;3.47;;
47669;SDS011;33408;52.062;11.722;2023-08-30T02:17:45;6.35;;;4.10;;
47669;SDS011;33408;52.062;11.722;2023-08-30T02:20:12;6.50;;;3.88;;
47669;SDS011;33408;52.062;11.722;2023-08-30T02:22:39;6.72;;;4.35;;
47669;SDS011;33408;52.062;11.722;2023-08-30T02:25:06;6.63;;;4.35;;
47669;SDS011;33408;52.062;11.722;2023-08-30T02:27:33;10.38;;;4.90;;
47669;SDS011;33408;52.062;11.722;2023-08-30T02:30:00;7.47;;;4.25;;
47669;SDS011;33408;52.062;11.722;2023-08-30T02:32:28;8.55;;;4.15;;
47669;SDS011;33408;52.062;11.722;2023-08-30T02:34:56;7.47;;;4.63;;
47669;SDS011;33408;52.062;11.722;2023-08-30T02:37:23;7.85;;;4.63;;
47669;SDS011;33408;52.062;11.722;2023-08-30T02:39:49;6.32;;;4.13;;
47669;SDS011;33408;52.062;11.722;2023-08-30T02:42:16;6.88;;;4.72;;
47669;SDS011;33408;52.062;11.722;2023-08-30T02:44:43;8.02;;;4.53;;
47669;SDS011;33408;52.062;11.722;2023-08-30T02:47:09;6.97;;;4.50;;
47669;SDS011;33408;52.062;11.722;2023-08-30T02:49:36;7.70;;;5.10;;
47669;SDS011;33408;52.062;11.722;2023-08-30T02:52:04;6.47;;;4.63;;
47669;SDS011;33408;52.062;11.722;2023-08-30T02:54:31;9.43;;;5.22;;
47669;SDS011;33408;52.062;11.722;2023-08-30T02:56:58;7.10;;;4.78;;
47669;SDS011;33408;52.062;11.722;2023-08-30T02:59:24;7.85;;;4.95;;
47669;SDS011;33408;52.062;11.722;2023-08-30T03:01:51;8.00;;;5.18;;
47669;SDS011;33408;52.062;11.722;2023-08-30T03:04:17;7.18;;;4.53;;
47669;SDS011;33408;52.062;11.722;2023-08-30T03:06:44;7.85;;;5.70;;
47669;SDS011;33408;52.062;11.722;2023-08-30T03:09:12;10.23;;;6.22;;
47669;SDS011;33408;52.062;11.722;2023-08-30T03:11:39;11.13;;;6.43;;
47669;SDS011;33408;52.062;11.722;2023-08-30T03:14:06;9.75;;;5.63;;
47669;SDS011;33408;52.062;11.722;2023-08-30T03:16:32;9.57;;;6.05;;
47669;SDS011;33408;52.062;11.722;2023-08-30T03:18:59;9.77;;;6.60;;
47669;SDS011;33408;52.062;11.722;2023-08-30T03:21:25;9.60;;;6.55;;
47669;SDS011;33408;52.062;11.722;2023-08-30T03:23:52;8.77;;;6.43;;
47669;SDS011;33408;52.062;11.722;2023-08-30T03:26:20;10.95;;;6.90;;
47669;SDS011;33408;52.062;11.722;2023-08-30T03:28:46;8.70;;;6.60;;
47669;SDS011;33408;52.062;11.722;2023-08-30T03:31:13;11.90;;;7.18;;
47669;SDS011;33408;52.062;11.722;2023-08-30T03:33:41;8.20;;;6.75;;
47669;SDS011;33408;52.062;11.722;2023-08-30T03:36:08;8.30;;;6.43;;
47669;SDS011;33408;52.062;11.722;2023-08-30T03:38:36;9.38;;;6.80;;
47669;SDS011;33408;52.062;11.722;2023-08-30T03:41:03;9.13;;;6.53;;
47669;SDS011;33408;52.062;11.722;2023-08-30T03:43:31;9.25;;;6.20;;
47669;SDS011;33408;52.062;11.722;2023-08-30T03:45:59;9.60;;;7.20;;
47669;SDS011;33408;52.062;11.722;2023-08-30T03:48:26;10.85;;;6.43;;
47669;SDS011;33408;52.062;11.722;2023-08-30T03:50:53;9.32;;;6.40;;
47669;SDS011;33408;52.062;11.722;2023-08-30T03:53:20;13.23;;;6.60;;
47669;SDS011;33408;52.062;11.722;2023-08-30T03:55:47;8.38;;;6.38;;
47669;SDS011;33408;52.062;11.722;2023-08-30T03:58:13;8.75;;;6.53;;
47669;SDS011;33408;52.062;11.722;2023-08-30T04:00:41;11.23;;;6.93;;
47669;SDS011;33408;52.062;11.722;2023-08-30T04:03:09;10.77;;;7.57;;
47669;SDS011;33408;52.062;11.722;2023-08-30T04:05:36;11.73;;;6.32;;
47669;SDS011;33408;52.062;11.722;2023-08-30T04:08:03;9.65;;;6.47;;
47669;SDS011;33408;52.062;11.722;2023-08-30T04:10:33;8.65;;;6.60;;
47669;SDS011;33408;52.062;11.722;2023-08-30T04:13:00;9.68;;;6.22;;
47669;SDS011;33408;52.062;11.722;2023-08-30T04:15:27;13.05;;;6.80;;
47669;SDS011;33408;52.062;11.722;2023-08-30T04:17:55;9.27;;;6.80;;
47669;SDS011;33408;52.062;11.722;2023-08-30T04:20:22;9.40;;;7.00;;
47669;SDS011;33408;52.062;11.722;2023-08-30T04:22:48;11.23;;;7.57;;
47669;SDS011;33408;52.062;11.722;2023-08-30T04:25:15;11.80;;;7.40;;
47669;SDS011;33408;52.062;11.722;2023-08-30T04:27:41;11.57;;;8.05;;
47669;SDS011;33408;52.062;11.722;2023-08-30T04:30:09;12.52;;;7.57;;
47669;SDS011;33408;52.062;11.722;2023-08-30T04:32:36;10.52;;;7.45;;
47669;SDS011;33408;52.062;11.722;2023-08-30T04:35:05;11.73;;;7.63;;
47669;SDS011;33408;52.062;11.722;2023-08-30T04:37:32;9.85;;;7.43;;
47669;SDS011;33408;52.062;11.722;2023-08-30T04:39:59;13.05;;;8.05;;
47669;SDS011;33408;52.062;11.722;2023-08-30T04:42:25;11.75;;;8.00;;
47669;SDS011;33408;52.062;11.722;2023-08-30T04:44:52;8.82;;;7.45;;
47669;SDS011;33408;52.062;11.722;2023-08-30T04:47:19;11.30;;;7.65;;
47669;SDS011;33408;52.062;11.722;2023-08-30T04:49:49;10.10;;;8.05;;
47669;SDS011;33408;52.062;11.722;2023-08-30T04:52:18;8.80;;;7.18;;
47669;SDS011;33408;52.062;11.722;2023-08-30T04:54:44;11.15;;;7.70;;
47669;SDS011;33408;52.062;11.722;2023-08-30T04:57:11;8.52;;;7.35;;
47669;SDS011;33408;52.062;11.722;2023-08-30T04:59:39;9.95;;;7.28;;
47669;SDS011;33408;52.062;11.722;2023-08-30T05:02:06;10.25;;;7.13;;
47669;SDS011;33408;52.062;11.722;2023-08-30T05:04:32;8.27;;;7.05;;
47669;SDS011;33408;52.062;11.722;2023-08-30T05:06:59;12.43;;;7.28;;
47669;SDS011;33408;52.062;11.722;2023-08-30T05:09:27;11.43;;;7.97;;
47669;SDS011;33408;52.062;11.722;2023-08-30T05:11:54;14.25;;;7.05;;
47669;SDS011;33408;52.062;11.722;2023-08-30T05:14:20;9.93;;;7.00;;
47669;SDS011;33408;52.062;11.722;2023-08-30T05:16:48;10.52;;;7.53;;
47669;SDS011;33408;52.062;11.722;2023-08-30T05:19:15;8.95;;;7.35;;
47669;SDS011;33408;52.062;11.722;2023-08-30T05:21:42;10.25;;;7.63;;
47669;SDS011;33408;52.062;11.722;2023-08-30T05:24:09;12.25;;;7.90;;
47669;SDS011;33408;52.062;11.722;2023-08-30T05:26:37;10.15;;;7.20;;
47669;SDS011;33408;52.062;11.722;2023-08-30T05:29:04;12.10;;;7.60;;
47669;SDS011;33408;52.062;11.722;2023-08-30T05:31:30;11.77;;;7.72;;
47669;SDS011;33408;52.062;11.722;2023-08-30T05:33:57;10.50;;;7.45;;
47669;SDS011;33408;52.062;11.722;2023-08-30T05:36:23;10.95;;;7.00;;
47669;SDS011;33408;52.062;11.722;2023-08-30T05:38:50;12.32;;;7.03;;
47669;SDS011;33408;52.062;11.722;2023-08-30T05:41:17;9.73;;;7.38;;
47669;SDS011;33408;52.062;11.722;2023-08-30T05:43:45;11.52;;;6.78;;
47669;SDS011;33408;52.062;11.722;2023-08-30T05:46:11;11.40;;;6.88;;
47669;SDS011;33408;52.062;11.722;2023-08-30T05:48:40;10.05;;;6.18;;
47669;SDS011;33408;52.062;11.722;2023-08-30T05:51:07;9.00;;;6.57;;
47669;SDS011;33408;52.062;11.722;2023-08-30T05:53:33;9.30;;;6.20;;
47669;SDS011;33408;52.062;11.722;2023-08-30T05:56:00;9.68;;;6.60;;
47669;SDS011;33408;52.062;11.722;2023-08-30T05:58:26;11.38;;;6.28;;
47669;SDS011;33408;52.062;11.722;2023-08-30T06:00:54;11.70;;;6.65;;
47669;SDS011;33408;52.062;11.722;2023-08-30T06:03:24;8.90;;;5.88;;
47669;SDS011;33408;52.062;11.722;2023-08-30T06:05:51;10.20;;;5.88;;
47669;SDS011;33408;52.062;11.722;2023-08-30T06:08:17;9.45;;;7.18;;
47669;SDS011;33408;52.062;11.722;2023-08-30T06:10:44;11.52;;;7.28;;
47669;SDS011;33408;52.062;11.722;2023-08-30T06:13:10;10.90;;;8.63;;
47669;SDS011;33408;52.062;11.722;2023-08-30T06:15:37;11.45;;;7.35;;
47669;SDS011;33408;52.062;11.722;2023-08-30T06:18:05;9.50;;;5.97;;
47669;SDS011;33408;52.062;11.722;2023-08-30T06:20:32;9.07;;;6.55;;
47669;SDS011;33408;52.062;11.722;2023-08-30T06:22:58;9.68;;;5.88;;
47669;SDS011;33408;52.062;11.722;2023-08-30T06:25:25;7.43;;;5.28;;
47669;SDS011;33408;52.062;11.722;2023-08-30T06:27:55;8.30;;;5.82;;
47669;SDS011;33408;52.062;11.722;2023-08-30T06:30:23;9.73;;;5.63;;
47669;SDS011;33408;52.062;11.722;2023-08-30T06:32:50;8.50;;;5.75;;
47669;SDS011;33408;52.062;11.722;2023-08-30T06:35:18;15.50;;;6.15;;
47669;SDS011;33408;52.062;11.722;2023-08-30T06:37:44;9.70;;;6.20;;
47669;SDS011;33408;52.062;11.722;2023-08-30T06:40:11;9.93;;;5.35;;
47669;SDS011;33408;52.062;11.722;2023-08-30T06:42:37;7.82;;;5.18;;
47669;SDS011;33408;52.062;11.722;2023-08-30T06:45:04;9.15;;;4.80;;
47669;SDS011;33408;52.062;11.722;2023-08-30T06:47:32;8.05;;;5.47;;
47669;SDS011;33408;52.062;11.722;2023-08-30T06:50:00;8.93;;;5.22;;
47669;SDS011;33408;52.062;11.722;2023-08-30T06:52:30;9.52;;;5.50;;
47669;SDS011;33408;52.062;11.722;2023-08-30T06:54:56;10.18;;;5.25;;
47669;SDS011;33408;52.062;11.722;2023-08-30T06:57:26;9.50;;;4.78;;
47669;SDS011;33408;52.062;11.722;2023-08-30T06:59:52;9.48;;;5.22;;
47669;SDS011;33408;52.062;11.722;2023-08-30T07:02:19;8.48;;;5.10;;
47669;SDS011;33408;52.062;11.722;2023-08-30T07:04:46;8.27;;;5.15;;
47669;SDS011;33408;52.062;11.722;2023-08-30T07:07:12;10.77;;;5.45;;
47669;SDS011;33408;52.062;11.722;2023-08-30T07:09:40;9.75;;;5.15;;
47669;SDS011;33408;52.062;11.722;2023-08-30T07:12:07;8.38;;;5.47;;
47669;SDS011;33408;52.062;11.722;2023-08-30T07:14:34;9.05;;;4.93;;
47669;SDS011;33408;52.062;11.722;2023-08-30T07:17:00;8.43;;;5.32;;
47669;SDS011;33408;52.062;11.722;2023-08-30T07:19:27;8.15;;;4.88;;
47669;SDS011;33408;52.062;11.722;2023-08-30T07:21:53;8.13;;;5.20;;
47669;SDS011;33408;52.062;11.722;2023-08-30T07:24:20;9.18;;;5.40;;
47669;SDS011;33408;52.062;11.722;2023-08-30T07:26:49;9.52;;;5.20;;
47669;SDS011;33408;52.062;11.722;2023-08-30T07:29:15;12.30;;;5.93;;
47669;SDS011;33408;52.062;11.722;2023-08-30T07:31:42;9.68;;;5.43;;
47669;SDS011;33408;52.062;11.722;2023-08-30T07:34:08;9.35;;;4.95;;
47669;SDS011;33408;52.062;11.722;2023-08-30T07:36:35;10.18;;;5.80;;
47669;SDS011;33408;52.062;11.722;2023-08-30T07:39:02;12.18;;;6.68;;
47669;SDS011;33408;52.062;11.722;2023-08-30T07:41:28;8.90;;;5.20;;
47669;SDS011;33408;52.062;11.722;2023-08-30T07:43:56;8.93;;;5.22;;
47669;SDS011;33408;52.062;11.722;2023-08-30T07:46:23;9.65;;;4.00;;
47669;SDS011;33408;52.062;11.722;2023-08-30T07:48:50;10.32;;;4.65;;
47669;SDS011;33408;52.062;11.722;2023-08-30T07:51:17;8.25;;;4.18;;
47669;SDS011;33408;52.062;11.722;2023-08-30T07:53:43;7.43;;;4.25;;
47669;SDS011;33408;52.062;11.722;2023-08-30T07:56:10;8.45;;;3.90;;
47669;SDS011;33408;52.062;11.722;2023-08-30T07:58:37;6.30;;;3.45;;
47669;SDS011;33408;52.062;11.722;2023-08-30T08:01:04;7.55;;;3.60;;
47669;SDS011;33408;52.062;11.722;2023-08-30T08:03:31;7.00;;;3.38;;
47669;SDS011;33408;52.062;11.722;2023-08-30T08:05:58;7.15;;;3.33;;
47669;SDS011;33408;52.062;11.722;2023-08-30T08:08:25;6.95;;;3.00;;
47669;SDS011;33408;52.062;11.722;2023-08-30T08:10:52;8.27;;;3.78;;
47669;SDS011;33408;52.062;11.722;2023-08-30T08:13:18;6.13;;;3.15;;
47669;SDS011;33408;52.062;11.722;2023-08-30T08:15:45;6.70;;;3.03;;
47669;SDS011;33408;52.062;11.722;2023-08-30T08:18:13;6.07;;;2.95;;
47669;SDS011;33408;52.062;11.722;2023-08-30T08:20:39;6.03;;;2.50;;
47669;SDS011;33408;52.062;11.722;2023-08-30T08:23:06;7.40;;;3.08;;
47669;SDS011;33408;52.062;11.722;2023-08-30T08:25:32;4.18;;;2.05;;
47669;SDS011;33408;52.062;11.722;2023-08-30T08:27:59;5.97;;;2.50;;
47669;SDS011;33408;52.062;11.722;2023-08-30T08:30:25;5.57;;;2.55;;
47669;SDS011;33408;52.062;11.722;2023-08-30T08:32:52;11.20;;;2.55;;
47669;SDS011;33408;52.062;11.722;2023-08-30T08:35:22;6.07;;;2.78;;
47669;SDS011;33408;52.062;11.722;2023-08-30T08:37:50;4.40;;;2.15;;
47669;SDS011;33408;52.062;11.722;2023-08-30T08:40:17;5.28;;;2.35;;
47669;SDS011;33408;52.062;11.722;2023-08-30T08:42:44;9.55;;;3.05;;
47669;SDS011;33408;52.062;11.722;2023-08-30T08:45:11;5.88;;;2.15;;
47669;SDS011;33408;52.062;11.722;2023-08-30T08:47:41;5.93;;;2.20;;
47669;SDS011;33408;52.062;11.722;2023-08-30T08:50:09;4.47;;;2.13;;
47669;SDS011;33408;52.062;11.722;2023-08-30T08:52:37;6.45;;;2.30;;
47669;SDS011;33408;52.062;11.722;2023-08-30T08:55:04;4.43;;;2.00;;
47669;SDS011;33408;52.062;11.722;2023-08-30T08:57:31;3.00;;;1.40;;
47669;SDS011;33408;52.062;11.722;2023-08-30T08:59:58;3.88;;;1.92;;
47669;SDS011;33408;52.062;11.722;2023-08-30T09:02:24;5.95;;;1.58;;
47669;SDS011;33408;52.062;11.722;2023-08-30T09:04:51;3.80;;;1.92;;
47669;SDS011;33408;52.062;11.722;2023-08-30T09:07:19;3.60;;;1.70;;
47669;SDS011;33408;52.062;11.722;2023-08-30T09:09:47;5.35;;;1.80;;
47669;SDS011;33408;52.062;11.722;2023-08-30T09:12:14;3.28;;;1.38;;
47669;SDS011;33408;52.062;11.722;2023-08-30T09:14:40;4.13;;;1.30;;
47669;SDS011;33408;52.062;11.722;2023-08-30T09:17:07;5.20;;;1.50;;
47669;SDS011;33408;52.062;11.722;2023-08-30T09:19:34;2.78;;;1.20;;
47669;SDS011;33408;52.062;11.722;2023-08-30T09:22:00;2.67;;;1.20;;
47669;SDS011;33408;52.062;11.722;2023-08-30T09:24:37;3.75;;;1.48;;
47669;SDS011;33408;52.062;11.722;2023-08-30T09:27:05;2.65;;;1.38;;
47669;SDS011;33408;52.062;11.722;2023-08-30T09:29:32;3.35;;;1.30;;
47669;SDS011;33408;52.062;11.722;2023-08-30T09:32:00;2.70;;;1.30;;
47669;SDS011;33408;52.062;11.722;2023-08-30T09:34:27;3.72;;;1.23;;
47669;SDS011;33408;52.062;11.722;2023-08-30T09:36:54;3.45;;;1.80;;
47669;SDS011;33408;52.062;11.722;2023-08-30T09:39:21;4.55;;;1.50;;
47669;SDS011;33408;52.062;11.722;2023-08-30T09:41:48;6.00;;;1.52;;
47669;SDS011;33408;52.062;11.722;2023-08-30T09:44:18;5.07;;;1.58;;
47669;SDS011;33408;52.062;11.722;2023-08-30T09:46:46;2.92;;;1.35;;
47669;SDS011;33408;52.062;11.722;2023-08-30T09:49:15;6.47;;;1.55;;
47669;SDS011;33408;52.062;11.722;2023-08-30T09:51:44;7.38;;;1.92;;
47669;SDS011;33408;52.062;11.722;2023-08-30T09:54:14;4.35;;;1.40;;
47669;SDS011;33408;52.062;11.722;2023-08-30T09:56:42;4.50;;;1.80;;
47669;SDS011;33408;52.062;11.722;2023-08-30T09:59:09;4.18;;;1.77;;
47669;SDS011;33408;52.062;11.722;2023-08-30T10:01:38;3.25;;;1.55;;
47669;SDS011;33408;52.062;11.722;2023-08-30T10:04:06;2.97;;;1.42;;
47669;SDS011;33408;52.062;11.722;2023-08-30T10:06:33;4.05;;;1.60;;
47669;SDS011;33408;52.062;11.722;2023-08-30T10:09:01;2.20;;;1.33;;
47669;SDS011;33408;52.062;11.722;2023-08-30T10:11:29;4.05;;;1.60;;
47669;SDS011;33408;52.062;11.722;2023-08-30T10:13:58;2.60;;;1.45;;
47669;SDS011;33408;52.062;11.722;2023-08-30T10:16:26;1.50;;;1.05;;
47669;SDS011;33408;52.062;11.722;2023-08-30T10:18:58;2.38;;;1.25;;
47669;SDS011;33408;52.062;11.722;2023-08-30T10:21:29;3.38;;;1.80;;
47669;SDS011;33408;52.062;11.722;2023-08-30T10:23:56;3.53;;;1.73;;
47669;SDS011;33408;52.062;11.722;2023-08-30T10:26:25;5.28;;;1.70;;
47669;SDS011;33408;52.062;11.722;2023-08-30T10:28:55;5.07;;;1.45;;
47669;SDS011;33408;52.062;11.722;2023-08-30T10:31:23;3.70;;;1.42;;
47669;SDS011;33408;52.062;11.722;2023-08-30T10:33:50;2.72;;;1.25;;
47669;SDS011;33408;52.062;11.722;2023-08-30T10:36:21;4.05;;;1.65;;
47669;SDS011;33408;52.062;11.722;2023-08-30T10:38:49;4.70;;;1.77;;
47669;SDS011;33408;52.062;11.722;2023-08-30T10:41:20;3.80;;;1.60;;
47669;SDS011;33408;52.062;11.722;2023-08-30T10:43:51;2.73;;;1.30;;
47669;SDS011;33408;52.062;11.722;2023-08-30T10:46:29;4.15;;;1.70;;
47669;SDS011;33408;52.062;11.722;2023-08-30T10:48:56;3.08;;;1.50;;
47669;SDS011;33408;52.062;11.722;2023-08-30T10:51:37;6.15;;;2.00;;
47669;SDS011;33408;52.062;11.722;2023-08-30T10:54:11;4.53;;;1.40;;
47669;SDS011;33408;52.062;11.722;2023-08-30T10:56:45;4.57;;;1.75;;
47669;SDS011;33408;52.062;11.722;2023-08-30T10:59:16;2.97;;;1.30;;
47669;SDS011;33408;52.062;11.722;2023-08-30T11:01:44;4.15;;;1.65;;
47669;SDS011;33408;52.062;11.722;2023-08-30T11:04:13;4.60;;;1.27;;
47669;SDS011;33408;52.062;11.722;2023-08-30T11:06:43;3.03;;;1.50;;
47669;SDS011;33408;52.062;11.722;2023-08-30T11:09:12;2.85;;;1.30;;
47669;SDS011;33408;52.062;11.722;2023-08-30T11:11:39;5.07;;;1.63;;
47669;SDS011;33408;52.062;11.722;2023-08-30T11:14:06;3.50;;;1.40;;
47669;SDS011;33408;52.062;11.722;2023-08-30T11:16:34;3.22;;;1.40;;
47669;SDS011;33408;52.062;11.722;2023-08-30T11:19:00;3.67;;;1.20;;
47669;SDS011;33408;52.062;11.722;2023-08-30T11:21:28;2.72;;;1.30;;
47669;SDS011;33408;52.062;11.722;2023-08-30T11:23:56;2.95;;;1.35;;
47669;SDS011;33408;52.062;11.722;2023-08-30T11:26:23;5.00;;;1.33;;
47669;SDS011;33408;52.062;11.722;2023-08-30T11:28:50;3.63;;;1.45;;
47669;SDS011;33408;52.062;11.722;2023-08-30T11:31:18;2.88;;;1.17;;
47669;SDS011;33408;52.062;11.722;2023-08-30T11:33:51;3.80;;;1.52;;
47669;SDS011;33408;52.062;11.722;2023-08-30T11:36:18;3.10;;;1.30;;
47669;SDS011;33408;52.062;11.722;2023-08-30T11:38:46;4.07;;;1.65;;
47669;SDS011;33408;52.062;11.722;2023-08-30T11:41:14;5.93;;;1.40;;
47669;SDS011;33408;52.062;11.722;2023-08-30T11:43:41;4.05;;;1.40;;
47669;SDS011;33408;52.062;11.722;2023-08-30T11:46:08;4.40;;;1.40;;
47669;SDS011;33408;52.062;11.722;2023-08-30T11:48:35;4.03;;;1.70;;
47669;SDS011;33408;52.062;11.722;2023-08-30T11:51:02;3.60;;;1.50;;
47669;SDS011;33408;52.062;11.722;2023-08-30T11:53:29;4.70;;;1.60;;
47669;SDS011;33408;52.062;11.722;2023-08-30T11:55:56;3.78;;;1.35;;
47669;SDS011;33408;52.062;11.722;2023-08-30T11:58:24;2.42;;;1.05;;
47669;SDS011;33408;52.062;11.722;2023-08-30T12:00:51;2.60;;;1.10;;
47669;SDS011;33408;52.062;11.722;2023-08-30T12:03:19;3.17;;;1.23;;
47669;SDS011;33408;52.062;11.722;2023-08-30T12:05:46;2.42;;;1.15;;
47669;SDS011;33408;52.062;11.722;2023-08-30T12:08:19;3.08;;;1.40;;
47669;SDS011;33408;52.062;11.722;2023-08-30T12:10:46;2.45;;;1.10;;
47669;SDS011;33408;52.062;11.722;2023-08-30T12:13:22;2.58;;;1.10;;
47669;SDS011;33408;52.062;11.722;2023-08-30T12:15:50;4.57;;;1.60;;
47669;SDS011;33408;52.062;11.722;2023-08-30T12:18:17;2.20;;;1.15;;
47669;SDS011;33408;52.062;11.722;2023-08-30T12:20:53;3.75;;;1.35;;
47669;SDS011;33408;52.062;11.722;2023-08-30T12:23:21;4.10;;;1.10;;
47669;SDS011;33408;52.062;11.722;2023-08-30T12:26:01;4.40;;;1.35;;
47669;SDS011;33408;52.062;11.722;2023-08-30T12:28:30;2.90;;;1.33;;
47669;SDS011;33408;52.062;11.722;2023-08-30T12:30:59;4.07;;;1.50;;
47669;SDS011;33408;52.062;11.722;2023-08-30T12:33:26;2.03;;;1.25;;
47669;SDS011;33408;52.062;11.722;2023-08-30T12:35:53;2.60;;;1.10;;
47669;SDS011;33408;52.062;11.722;2023-08-30T12:38:20;2.30;;;1.15;;
47669;SDS011;33408;52.062;11.722;2023-08-30T12:40:47;2.63;;;1.15;;
47669;SDS011;33408;52.062;11.722;2023-08-30T12:43:15;7.82;;;1.88;;
47669;SDS011;33408;52.062;11.722;2023-08-30T12:45:42;5.22;;;1.50;;
47669;SDS011;33408;52.062;11.722;2023-08-30T12:48:11;4.35;;;1.05;;
47669;SDS011;33408;52.062;11.722;2023-08-30T12:50:40;2.78;;;1.08;;
47669;SDS011;33408;52.062;11.722;2023-08-30T12:53:08;3.50;;;1.60;;
47669;SDS011;33408;52.062;11.722;2023-08-30T12:55:35;5.90;;;1.35;;
47669;SDS011;33408;52.062;11.722;2023-08-30T12:58:02;3.88;;;1.75;;
47669;SDS011;33408;52.062;11.722;2023-08-30T13:00:29;3.22;;;1.13;;
47669;SDS011;33408;52.062;11.722;2023-08-30T13:02:56;3.50;;;1.20;;
47669;SDS011;33408;52.062;11.722;2023-08-30T13:05:24;4.45;;;1.52;;
47669;SDS011;33408;52.062;11.722;2023-08-30T13:07:52;5.38;;;1.60;;
47669;SDS011;33408;52.062;11.722;2023-08-30T13:10:18;4.68;;;1.83;;
47669;SDS011;33408;52.062;11.722;2023-08-30T13:12:45;4.82;;;1.90;;
47669;SDS011;33408;52.062;11.722;2023-08-30T13:15:11;2.47;;;1.20;;
47669;SDS011;33408;52.062;11.722;2023-08-30T13:17:38;4.80;;;1.80;;
47669;SDS011;33408;52.062;11.722;2023-08-30T13:20:05;2.03;;;1.17;;
47669;SDS011;33408;52.062;11.722;2023-08-30T13:22:34;3.05;;;1.20;;
47669;SDS011;33408;52.062;11.722;2023-08-30T13:25:02;3.95;;;1.70;;
47669;SDS011;33408;52.062;11.722;2023-08-30T13:27:30;3.22;;;1.40;;
47669;SDS011;33408;52.062;11.722;2023-08-30T13:29:56;4.32;;;1.48;;
47669;SDS011;33408;52.062;11.722;2023-08-30T13:32:22;3.10;;;1.42;;
47669;SDS011;33408;52.062;11.722;2023-08-30T13:34:49;2.45;;;1.17;;
47669;SDS011;33408;52.062;11.722;2023-08-30T13:37:16;3.42;;;1.45;;
47669;SDS011;33408;52.062;11.722;2023-08-30T13:39:46;6.70;;;1.70;;
47669;SDS011;33408;52.062;11.722;2023-08-30T13:42:13;5.25;;;1.45;;
47669;SDS011;33408;52.062;11.722;2023-08-30T13:44:39;3.17;;;1.40;;
47669;SDS011;33408;52.062;11.722;2023-08-30T13:47:08;3.42;;;1.50;;
47669;SDS011;33408;52.062;11.722;2023-08-30T13:49:35;2.08;;;1.23;;
47669;SDS011;33408;52.062;11.722;2023-08-30T13:52:01;4.13;;;1.70;;
47669;SDS011;33408;52.062;11.722;2023-08-30T13:54:28;4.75;;;1.35;;
47669;SDS011;33408;52.062;11.722;2023-08-30T13:56:57;4.25;;;1.48;;
47669;SDS011;33408;52.062;11.722;2023-08-30T13:59:24;2.17;;;1.00;;
47669;SDS011;33408;52.062;11.722;2023-08-30T14:01:50;5.55;;;1.50;;
47669;SDS011;33408;52.062;11.722;2023-08-30T14:04:17;2.92;;;1.38;;
47669;SDS011;33408;52.062;11.722;2023-08-30T14:06:44;2.65;;;1.42;;
47669;SDS011;33408;52.062;11.722;2023-08-30T14:09:10;2.70;;;1.20;;
47669;SDS011;33408;52.062;11.722;2023-08-30T14:11:38;3.33;;;1.20;;
47669;SDS011;33408;52.062;11.722;2023-08-30T14:14:07;2.65;;;1.33;;
47669;SDS011;33408;52.062;11.722;2023-08-30T14:16:35;2.75;;;1.15;;
47669;SDS011;33408;52.062;11.722;2023-08-30T14:19:02;2.78;;;1.30;;
47669;SDS011;33408;52.062;11.722;2023-08-30T14:21:30;3.70;;;1.50;;
47669;SDS011;33408;52.062;11.722;2023-08-30T14:23:57;4.97;;;1.23;;
47669;SDS011;33408;52.062;11.722;2023-08-30T14:26:24;2.65;;;1.40;;
47669;SDS011;33408;52.062;11.722;2023-08-30T14:28:50;3.63;;;1.30;;
47669;SDS011;33408;52.062;11.722;2023-08-30T14:31:18;3.20;;;1.13;;
47669;SDS011;33408;52.062;11.722;2023-08-30T14:33:45;4.82;;;1.58;;
47669;SDS011;33408;52.062;11.722;2023-08-30T14:36:11;2.30;;;1.15;;